createdAt,value
2018-03-26T00:00:53.384Z,83.28
2018-03-26T00:03:20.775Z,86.73
2018-03-26T00:05:48.188Z,90.82
2018-03-26T00:08:15.588Z,80.60
2018-03-26T00:10:43.000Z,81.37
2018-03-26T00:13:10.403Z,75.20
2018-03-26T00:15:37.804Z,75.90
2018-03-26T00:18:05.219Z,85.05
2018-03-26T00:20:32.650Z,84.65
2018-03-26T00:23:00.074Z,79.25
2018-03-26T00:25:27.473Z,79.40
2018-03-26T00:27:54.873Z,91.80
2018-03-26T00:30:22.283Z,92.55
2018-03-26T00:32:49.709Z,93.32
2018-03-26T00:35:17.145Z,116.45
2018-03-26T00:37:44.539Z,120.95
2018-03-26T00:40:11.961Z,109.93
2018-03-26T00:42:39.368Z,127.68
2018-03-26T00:45:06.776Z,146.65
2018-03-26T00:47:34.200Z,134.18
2018-03-26T00:50:01.612Z,150.15
2018-03-26T00:52:29.033Z,164.68
2018-03-26T00:54:56.452Z,188.12
2018-03-26T00:57:23.868Z,219.10
2018-03-26T00:59:51.298Z,220.55
2018-03-26T01:02:18.705Z,211.52
2018-03-26T01:04:46.128Z,187.50
2018-03-26T01:07:13.546Z,181.15
2018-03-26T01:09:40.965Z,208.05
2018-03-26T01:12:08.397Z,193.73
2018-03-26T01:14:35.802Z,194.02
2018-03-26T01:17:03.203Z,105.57
2018-03-26T01:19:30.625Z,105.22
2018-03-26T01:21:58.035Z,145.62
2018-03-26T01:24:25.489Z,107.63
2018-03-26T01:26:52.866Z,102.03
2018-03-26T01:29:20.268Z,113.07
2018-03-26T01:31:47.707Z,107.57
2018-03-26T01:34:15.104Z,113.18
2018-03-26T01:36:42.523Z,109.57
2018-03-26T01:39:09.937Z,108.75
2018-03-26T01:41:37.352Z,120.87
2018-03-26T01:44:04.776Z,88.05
2018-03-26T01:46:32.191Z,92.68
2018-03-26T01:48:59.612Z,109.00
2018-03-26T01:51:27.020Z,130.10
2018-03-26T01:53:54.440Z,106.15
2018-03-26T01:56:21.851Z,100.95
2018-03-26T01:58:49.325Z,114.68
2018-03-26T02:01:16.735Z,125.05
2018-03-26T02:03:44.140Z,135.57
2018-03-26T02:06:11.544Z,143.32
2018-03-26T02:08:38.966Z,142.45
2018-03-26T02:11:06.360Z,136.23
2018-03-26T02:13:33.784Z,160.60
2018-03-26T02:16:01.188Z,131.75
2018-03-26T02:18:28.876Z,144.13
2018-03-26T02:20:56.299Z,142.90
2018-03-26T02:23:23.703Z,152.87
2018-03-26T02:25:51.129Z,143.73
2018-03-26T02:28:18.531Z,134.63
2018-03-26T02:30:45.948Z,135.40
2018-03-26T02:33:13.368Z,136.45
2018-03-26T02:35:40.774Z,139.82
2018-03-26T02:38:08.191Z,137.02
2018-03-26T02:40:35.612Z,143.98
2018-03-26T02:43:03.029Z,138.70
2018-03-26T02:45:30.443Z,132.35
2018-03-26T02:47:57.848Z,136.15
2018-03-26T02:50:25.269Z,135.20
2018-03-26T02:52:52.672Z,150.55
2018-03-26T02:55:20.084Z,150.95
2018-03-26T02:57:47.505Z,130.55
2018-03-26T03:00:14.908Z,124.30
2018-03-26T03:02:42.333Z,128.40
2018-03-26T03:05:09.743Z,138.95
2018-03-26T03:07:37.145Z,129.15
2018-03-26T03:10:04.559Z,117.75
2018-03-26T03:12:31.971Z,140.12
2018-03-26T03:14:59.395Z,139.40
2018-03-26T03:17:26.795Z,132.73
2018-03-26T03:19:54.256Z,131.43
2018-03-26T03:22:21.621Z,114.82
2018-03-26T03:24:49.032Z,122.07
2018-03-26T03:27:16.455Z,115.25
2018-03-26T03:29:43.860Z,112.60
2018-03-26T03:32:11.277Z,108.18
2018-03-26T03:34:38.689Z,108.68
2018-03-26T03:37:06.101Z,106.75
2018-03-26T03:39:33.518Z,89.10
2018-03-26T03:42:00.927Z,118.78
2018-03-26T03:44:28.328Z,94.80
2018-03-26T03:46:55.749Z,106.57
2018-03-26T03:49:23.151Z,106.30
2018-03-26T03:51:50.579Z,127.47
2018-03-26T03:54:17.984Z,138.70
2018-03-26T03:56:45.392Z,140.18
2018-03-26T03:59:12.811Z,141.37
2018-03-26T04:01:40.219Z,145.73
2018-03-26T04:04:07.640Z,147.20
2018-03-26T04:06:35.039Z,156.47
2018-03-26T04:09:02.451Z,144.82
2018-03-26T04:11:29.895Z,147.13
2018-03-26T04:13:57.356Z,124.47
2018-03-26T04:16:24.874Z,129.12
2018-03-26T04:18:52.366Z,136.68
2018-03-26T04:21:19.829Z,138.07
2018-03-26T04:23:47.352Z,143.90
2018-03-26T04:26:14.808Z,125.82
2018-03-26T04:28:42.235Z,138.75
2018-03-26T04:31:09.755Z,146.05
2018-03-26T04:33:37.166Z,133.10
2018-03-26T04:36:04.582Z,146.68
2018-03-26T04:38:31.991Z,143.10
2018-03-26T04:40:59.412Z,132.12
2018-03-26T04:43:26.819Z,132.95
2018-03-26T04:45:54.227Z,130.27
2018-03-26T04:48:21.642Z,132.05
2018-03-26T04:50:49.061Z,138.05
2018-03-26T04:53:16.475Z,137.12
2018-03-26T04:55:43.927Z,136.95
2018-03-26T04:58:11.376Z,142.35
2018-03-26T05:00:38.796Z,150.52
2018-03-26T05:03:06.203Z,154.87
2018-03-26T05:05:33.621Z,140.12
2018-03-26T05:08:01.019Z,148.13
2018-03-26T05:10:28.420Z,145.67
2018-03-26T05:12:55.840Z,129.73
2018-03-26T05:15:23.255Z,150.25
2018-03-26T05:17:50.667Z,134.95
2018-03-26T05:20:18.075Z,140.37
2018-03-26T05:22:45.507Z,130.55
2018-03-26T05:25:12.900Z,117.93
2018-03-26T05:27:40.330Z,144.52
2018-03-26T05:30:07.760Z,153.07
2018-03-26T05:32:35.176Z,151.05
2018-03-26T05:35:02.584Z,140.52
2018-03-26T05:37:30.002Z,121.32
2018-03-26T05:39:57.412Z,136.47
2018-03-26T05:42:24.855Z,106.60
2018-03-26T05:44:52.292Z,104.85
2018-03-26T05:47:19.693Z,112.40
2018-03-26T05:49:47.100Z,111.07
2018-03-26T05:52:14.559Z,120.07
2018-03-26T05:54:41.932Z,108.57
2018-03-26T05:57:09.343Z,110.05
2018-03-26T05:59:36.743Z,109.40
2018-03-26T06:02:04.196Z,112.43
2018-03-26T06:04:31.552Z,134.40
2018-03-26T06:06:58.971Z,108.63
2018-03-26T06:09:26.375Z,120.70
2018-03-26T06:11:53.791Z,121.73
2018-03-26T06:14:21.184Z,128.17
2018-03-26T06:17:00.393Z,141.27
2018-03-26T06:19:27.807Z,127.30
2018-03-26T06:21:55.219Z,128.50
2018-03-26T06:24:22.620Z,119.47
2018-03-26T06:26:50.024Z,128.60
2018-03-26T06:29:17.428Z,150.53
2018-03-26T06:31:44.848Z,147.47
2018-03-26T06:34:12.247Z,135.30
2018-03-26T06:36:45.568Z,140.30
2018-03-26T06:39:17.507Z,139.47
2018-03-26T06:41:44.924Z,135.53
2018-03-26T06:44:12.382Z,127.20
2018-03-26T06:46:39.724Z,127.13
2018-03-26T06:49:07.134Z,138.93
2018-03-26T06:51:34.531Z,133.70
2018-03-26T06:54:01.944Z,136.60
2018-03-26T06:56:29.354Z,151.87
2018-03-26T06:58:56.756Z,141.57
2018-03-26T07:01:24.180Z,149.18
2018-03-26T07:03:51.580Z,149.17
2018-03-26T07:06:18.987Z,136.95
2018-03-26T07:08:46.403Z,140.30
2018-03-26T07:11:13.800Z,155.90
2018-03-26T07:13:41.220Z,144.33
2018-03-26T07:16:08.690Z,143.83
2018-03-26T07:18:36.100Z,155.23
2018-03-26T07:21:04.305Z,146.03
2018-03-26T07:23:31.700Z,143.23
2018-03-26T07:25:59.119Z,141.03
2018-03-26T07:28:26.519Z,133.50
2018-03-26T07:30:53.960Z,147.80
2018-03-26T07:33:21.352Z,147.53
2018-03-26T07:35:48.771Z,147.70
2018-03-26T07:38:16.193Z,161.90
2018-03-26T07:40:43.591Z,147.90
2018-03-26T07:43:10.988Z,142.67
2018-03-26T07:45:38.399Z,142.40
2018-03-26T07:48:05.808Z,150.90
2018-03-26T07:50:33.223Z,155.73
2018-03-26T07:53:00.638Z,147.50
2018-03-26T07:55:28.036Z,157.50
2018-03-26T07:57:55.445Z,138.77
2018-03-26T08:00:22.847Z,150.67
2018-03-26T08:02:50.257Z,143.80
2018-03-26T08:05:17.695Z,169.73
2018-03-26T08:07:45.132Z,139.10
2018-03-26T08:10:12.524Z,138.47
2018-03-26T08:12:39.935Z,151.12
2018-03-26T08:15:07.347Z,136.67
2018-03-26T08:17:34.743Z,137.57
2018-03-26T08:20:02.143Z,141.77
2018-03-26T08:22:29.553Z,144.53
2018-03-26T08:24:56.957Z,126.90
2018-03-26T08:27:24.349Z,140.10
2018-03-26T08:29:51.764Z,143.00
2018-03-26T08:32:19.264Z,139.10
2018-03-26T08:34:46.669Z,136.83
2018-03-26T08:37:14.076Z,147.87
2018-03-26T08:39:41.475Z,146.07
2018-03-26T08:42:08.879Z,133.30
2018-03-26T08:44:36.288Z,133.60
2018-03-26T08:47:03.688Z,146.23
2018-03-26T08:49:31.089Z,120.93
2018-03-26T08:51:58.508Z,120.17
2018-03-26T08:54:25.917Z,134.10
2018-03-26T08:56:53.320Z,123.10
2018-03-26T08:59:20.764Z,128.53
2018-03-26T09:01:48.143Z,140.80
2018-03-26T09:04:15.552Z,137.60
2018-03-26T09:06:42.947Z,136.37
2018-03-26T09:09:10.351Z,127.73
2018-03-26T09:11:37.755Z,142.97
2018-03-26T09:14:05.219Z,132.23
2018-03-26T09:16:32.615Z,132.77
2018-03-26T09:19:00.017Z,136.13
2018-03-26T09:21:27.423Z,143.60
2018-03-26T09:23:54.824Z,117.67
2018-03-26T09:26:22.236Z,142.30
2018-03-26T09:28:49.644Z,129.67
2018-03-26T09:31:17.047Z,131.03
2018-03-26T09:33:44.460Z,132.87
2018-03-26T09:36:11.865Z,137.97
2018-03-26T09:38:39.292Z,131.93
2018-03-26T09:41:06.700Z,120.50
2018-03-26T09:43:34.108Z,121.50
2018-03-26T09:46:01.519Z,120.50
2018-03-26T09:48:28.938Z,136.07
2018-03-26T09:50:56.352Z,126.07
2018-03-26T09:53:23.765Z,130.73
2018-03-26T09:55:51.176Z,137.87
2018-03-26T09:58:18.594Z,144.00
2018-03-26T10:00:48.764Z,133.43
2018-03-26T10:03:16.229Z,140.23
2018-03-26T10:05:43.636Z,132.30
2018-03-26T10:08:11.076Z,139.13
2018-03-26T10:10:38.488Z,127.57
2018-03-26T10:13:05.898Z,139.73
2018-03-26T10:15:33.304Z,139.97
2018-03-26T10:18:00.709Z,130.37
2018-03-26T10:20:28.150Z,123.27
2018-03-26T10:22:55.552Z,124.33
2018-03-26T10:25:22.943Z,132.77
2018-03-26T10:27:50.359Z,126.00
2018-03-26T10:30:17.767Z,125.27
2018-03-26T10:32:45.192Z,128.60
2018-03-26T10:35:12.592Z,128.93
2018-03-26T10:37:40.015Z,124.37
2018-03-26T10:40:07.428Z,129.00
2018-03-26T10:42:34.828Z,166.77
2018-03-26T10:45:02.519Z,133.77
2018-03-26T10:47:29.923Z,131.57
2018-03-26T10:49:57.327Z,126.47
2018-03-26T10:52:24.735Z,127.10
2018-03-26T10:54:52.149Z,137.83
2018-03-26T10:57:19.564Z,127.77
2018-03-26T10:59:46.963Z,135.93
2018-03-26T11:02:14.363Z,117.13
2018-03-26T11:04:41.781Z,135.70
2018-03-26T11:07:09.180Z,131.87
2018-03-26T11:09:36.600Z,141.17
2018-03-26T11:12:04.008Z,142.70
2018-03-26T11:14:31.410Z,131.83
2018-03-26T11:16:58.819Z,139.93
2018-03-26T11:19:26.227Z,142.67
2018-03-26T11:21:53.648Z,130.13
2018-03-26T11:24:21.047Z,145.97
2018-03-26T11:26:48.476Z,135.20
2018-03-26T11:29:15.876Z,138.90
2018-03-26T11:31:43.283Z,136.63
2018-03-26T11:34:10.700Z,142.10
2018-03-26T11:36:38.108Z,138.47
2018-03-26T11:39:05.513Z,141.87
2018-03-26T11:41:32.930Z,136.30
2018-03-26T11:44:00.326Z,150.40
2018-03-26T11:46:27.744Z,140.07
2018-03-26T11:48:55.148Z,142.90
2018-03-26T11:51:22.552Z,130.80
2018-03-26T11:53:49.985Z,133.20
2018-03-26T11:56:17.488Z,137.30
2018-03-26T11:58:44.892Z,128.90
2018-03-26T12:01:12.318Z,133.13
2018-03-26T12:03:39.707Z,138.00
2018-03-26T12:06:07.116Z,140.53
2018-03-26T12:08:34.528Z,124.70
2018-03-26T12:11:01.944Z,124.47
2018-03-26T12:13:29.344Z,135.10
2018-03-26T12:15:56.744Z,128.57
2018-03-26T12:18:24.151Z,125.53
2018-03-26T12:20:57.039Z,119.67
2018-03-26T12:23:36.228Z,120.63
2018-03-26T12:26:03.628Z,122.83
2018-03-26T12:28:42.760Z,125.43
2018-03-26T12:31:10.171Z,135.23
2018-03-26T12:33:49.528Z,128.27
2018-03-26T12:36:16.937Z,129.30
2018-03-26T12:38:44.339Z,124.40
2018-03-26T12:41:11.752Z,121.37
2018-03-26T12:43:39.159Z,113.83
2018-03-26T12:46:18.383Z,108.70
2018-03-26T12:48:45.754Z,124.23
2018-03-26T12:51:24.879Z,112.67
2018-03-26T12:53:52.279Z,108.37
2018-03-26T12:56:19.700Z,114.53
2018-03-26T12:58:48.004Z,117.50
2018-03-26T13:01:27.173Z,130.13
2018-03-26T13:03:54.581Z,119.47
2018-03-26T13:06:21.984Z,111.93
2018-03-26T13:08:49.403Z,107.80
2018-03-26T13:11:16.804Z,124.20
2018-03-26T13:13:44.225Z,117.37
2018-03-26T13:16:11.641Z,124.43
2018-03-26T13:18:39.040Z,122.63
2018-03-26T13:21:06.444Z,119.33
2018-03-26T13:23:33.855Z,115.03
2018-03-26T13:26:01.270Z,112.47
2018-03-26T13:28:28.675Z,127.70
2018-03-26T13:30:56.076Z,121.17
2018-03-26T13:33:23.476Z,136.77
2018-03-26T13:35:50.892Z,136.77
2018-03-26T13:38:18.296Z,128.50
2018-03-26T13:40:45.713Z,110.77
2018-03-26T13:43:13.111Z,125.37
2018-03-26T13:45:40.516Z,133.07
2018-03-26T13:48:07.935Z,133.63
2018-03-26T13:50:35.336Z,127.70
2018-03-26T13:53:02.760Z,136.80
2018-03-26T13:55:30.168Z,148.83
2018-03-26T13:57:57.566Z,133.10
2018-03-26T14:00:24.972Z,139.93
2018-03-26T14:02:52.372Z,135.70
2018-03-26T14:05:19.782Z,147.73
2018-03-26T14:07:47.191Z,138.13
2018-03-26T14:10:26.304Z,142.70
2018-03-26T14:13:05.479Z,137.80
2018-03-26T14:15:44.683Z,158.53
2018-03-26T14:18:12.108Z,143.87
2018-03-26T14:20:39.492Z,153.10
2018-03-26T14:23:06.899Z,140.63
2018-03-26T14:25:34.299Z,137.23
2018-03-26T14:28:01.716Z,125.03
2018-03-26T14:30:29.116Z,131.83
2018-03-26T14:32:56.512Z,121.27
2018-03-26T14:38:20.507Z,138.77
2018-03-26T14:40:47.912Z,139.80
2018-03-26T14:43:15.321Z,126.93
2018-03-26T14:45:42.725Z,137.17
2018-03-26T14:48:10.120Z,125.07
2018-03-26T14:50:37.544Z,150.00
2018-03-26T14:53:04.948Z,132.77
2018-03-26T14:55:32.344Z,118.13
2018-03-26T14:57:59.757Z,139.37
2018-03-26T15:00:27.195Z,135.43
2018-03-26T15:02:54.596Z,134.50
2018-03-26T15:05:22.000Z,136.80
2018-03-26T15:07:49.416Z,137.30
2018-03-26T15:10:16.928Z,126.47
2018-03-26T15:12:44.328Z,126.27
2018-03-26T15:15:11.745Z,123.17
2018-03-26T15:17:39.139Z,117.67
2018-03-26T15:20:06.543Z,125.53
2018-03-26T15:22:33.952Z,116.57
2018-03-26T15:25:01.370Z,121.83
2018-03-26T15:27:28.819Z,119.77
2018-03-26T15:29:56.178Z,117.43
2018-03-26T15:32:23.584Z,122.87
2018-03-26T15:34:50.995Z,119.33
2018-03-26T15:37:18.401Z,125.47
2018-03-26T15:39:45.808Z,133.97
2018-03-26T15:42:13.220Z,118.77
2018-03-26T15:44:40.624Z,113.60
2018-03-26T15:47:08.024Z,118.03
2018-03-26T15:49:35.432Z,113.37
2018-03-26T15:52:02.841Z,112.23
2018-03-26T15:54:30.249Z,118.20
2018-03-26T15:56:57.643Z,109.50
2018-03-26T15:59:25.044Z,112.77
2018-03-26T16:01:51.890Z,114.57
2018-03-26T16:04:19.286Z,114.47
2018-03-26T16:06:46.695Z,132.97
2018-03-26T16:09:14.146Z,116.80
2018-03-26T16:11:41.552Z,111.10
2018-03-26T16:14:08.996Z,120.80
2018-03-26T16:16:36.395Z,115.33
2018-03-26T16:19:03.812Z,112.97
2018-03-26T16:21:31.216Z,118.93
2018-03-26T16:23:58.633Z,118.10
2018-03-26T16:26:26.037Z,108.73
2018-03-26T16:28:53.434Z,120.43
2018-03-26T16:31:20.845Z,114.67
2018-03-26T16:33:48.261Z,106.27
2018-03-26T16:36:15.675Z,116.07
2018-03-26T16:38:43.078Z,110.07
2018-03-26T16:41:10.477Z,112.77
2018-03-26T16:43:37.893Z,107.77
2018-03-26T16:46:05.295Z,122.30
2018-03-26T16:48:32.713Z,114.97
2018-03-26T16:51:00.116Z,117.87
2018-03-26T16:53:27.512Z,114.17
2018-03-26T16:55:54.938Z,120.63
2018-03-26T16:58:22.340Z,120.60
2018-03-26T17:00:49.760Z,127.87
2018-03-26T17:03:17.156Z,118.30
2018-03-26T17:05:44.560Z,117.70
2018-03-26T17:08:11.969Z,114.50
2018-03-26T17:10:39.363Z,115.80
2018-03-26T17:13:06.784Z,122.97
2018-03-26T17:15:34.188Z,112.33
2018-03-26T17:18:01.584Z,128.83
2018-03-26T17:20:28.996Z,129.70
2018-03-26T17:22:57.372Z,115.93
2018-03-26T17:25:24.789Z,125.60
2018-03-26T17:27:52.196Z,133.57
2018-03-26T17:30:19.596Z,116.77
2018-03-26T17:32:47.009Z,125.97
2018-03-26T17:35:14.450Z,153.67
2018-03-26T17:37:41.854Z,127.43
2018-03-26T17:40:09.252Z,123.33
2018-03-26T17:42:36.653Z,122.93
2018-03-26T17:45:04.069Z,123.07
2018-03-26T17:47:31.469Z,133.03
2018-03-26T17:49:58.884Z,137.70
2018-03-26T17:52:26.327Z,125.07
2018-03-26T17:54:53.690Z,134.33
2018-03-26T17:57:21.099Z,133.23
2018-03-26T17:59:48.499Z,131.73
2018-03-26T18:02:16.250Z,146.63
2018-03-26T18:04:43.671Z,133.93
2018-03-26T18:07:11.068Z,140.50
2018-03-26T18:09:38.475Z,142.33
2018-03-26T18:12:05.898Z,132.93
2018-03-26T18:14:33.300Z,142.50
2018-03-26T18:17:00.709Z,142.50
2018-03-26T18:19:28.103Z,131.67
2018-03-26T18:21:55.523Z,132.93
2018-03-26T18:24:22.917Z,134.10
2018-03-26T18:26:56.240Z,135.87
2018-03-26T18:29:23.640Z,135.10
2018-03-26T18:31:51.044Z,130.73
2018-03-26T18:34:18.448Z,141.27
2018-03-26T18:36:45.858Z,152.13
2018-03-26T18:39:13.271Z,151.80
2018-03-26T18:41:40.672Z,143.60
2018-03-26T18:44:08.080Z,152.80
2018-03-26T18:46:35.484Z,134.77
2018-03-26T18:49:02.892Z,143.95
2018-03-26T18:51:30.308Z,134.27
2018-03-26T18:53:57.720Z,147.10
2018-03-26T18:56:26.147Z,144.63
2018-03-26T18:58:53.564Z,152.90
2018-03-26T19:01:20.964Z,136.43
2018-03-26T19:03:48.384Z,159.33
2018-03-26T19:06:15.792Z,156.67
2018-03-26T19:08:43.196Z,150.83
2018-03-26T19:11:10.608Z,153.10
2018-03-26T19:13:38.012Z,151.33
2018-03-26T19:16:05.424Z,144.67
2018-03-26T19:18:32.824Z,150.37
2018-03-26T19:21:00.307Z,142.27
2018-03-26T19:23:27.741Z,145.73
2018-03-26T19:25:55.120Z,149.53
2018-03-26T19:28:22.530Z,147.77
2018-03-26T19:30:49.932Z,147.30
2018-03-26T19:33:17.414Z,141.73
2018-03-26T19:35:44.828Z,153.30
2018-03-26T19:38:12.228Z,175.03
2018-03-26T19:40:39.641Z,158.50
2018-03-26T19:43:07.053Z,147.67
2018-03-26T19:45:34.469Z,157.27
2018-03-26T19:48:01.898Z,165.98
2018-03-26T19:50:29.300Z,157.30
2018-03-26T19:52:56.712Z,167.30
2018-03-26T19:55:24.117Z,152.70
2018-03-26T19:57:51.535Z,156.90
2018-03-26T20:00:18.941Z,161.43
2018-03-26T20:02:46.338Z,155.63
2018-03-26T20:05:13.754Z,163.10
2018-03-26T20:07:41.150Z,159.83
2018-03-26T20:10:08.579Z,158.47
2018-03-26T20:12:35.983Z,159.32
2018-03-26T20:15:03.397Z,157.10
2018-03-26T20:17:30.829Z,183.55
2018-03-26T20:19:58.227Z,144.90
2018-03-26T20:22:25.639Z,155.87
2018-03-26T20:24:53.056Z,153.70
2018-03-26T20:27:20.472Z,166.67
2018-03-26T20:29:47.880Z,156.50
2018-03-26T20:32:15.281Z,163.43
2018-03-26T20:34:42.688Z,149.83
2018-03-26T20:37:10.091Z,153.93
2018-03-26T20:39:37.497Z,152.77
2018-03-26T20:42:04.911Z,156.33
2018-03-26T20:44:32.307Z,159.97
2018-03-26T20:46:59.720Z,151.60
2018-03-26T20:49:27.136Z,152.23
2018-03-26T20:51:54.539Z,153.30
2018-03-26T20:54:21.952Z,157.40
2018-03-26T20:56:49.363Z,152.37
2018-03-26T20:59:16.776Z,146.27
2018-03-26T21:01:44.175Z,147.33
2018-03-26T21:04:11.571Z,150.97
2018-03-26T21:06:38.990Z,164.50
2018-03-26T21:09:06.388Z,154.40
2018-03-26T21:11:33.918Z,147.43
2018-03-26T21:14:01.329Z,149.17
2018-03-26T21:16:28.732Z,156.90
2018-03-26T21:18:56.140Z,160.50
2018-03-26T21:21:23.553Z,151.48
2018-03-26T21:23:50.976Z,163.73
2018-03-26T21:26:18.391Z,159.07
2018-03-26T21:28:45.789Z,157.40
2018-03-26T21:31:13.204Z,169.43
2018-03-26T21:33:40.612Z,168.73
2018-03-26T21:36:08.029Z,190.93
2018-03-26T21:38:35.431Z,164.20
2018-03-26T21:41:02.849Z,196.93
2018-03-26T21:43:30.275Z,171.95
2018-03-26T21:45:57.680Z,194.90
2018-03-26T21:48:25.104Z,194.37
2018-03-26T21:50:52.514Z,208.13
2018-03-26T21:53:19.920Z,195.20
2018-03-26T21:55:47.331Z,199.83
2018-03-26T21:58:14.739Z,197.98
2018-03-26T22:00:42.161Z,180.10
2018-03-26T22:03:09.581Z,190.23
2018-03-26T22:05:36.977Z,198.33
2018-03-26T22:08:04.401Z,196.27
2018-03-26T22:10:31.814Z,203.17
2018-03-26T22:12:59.212Z,193.50
2018-03-26T22:15:26.641Z,178.65
2018-03-26T22:17:54.046Z,189.73
2018-03-26T22:20:21.468Z,197.70
2018-03-26T22:22:48.881Z,185.65
2018-03-26T22:25:16.292Z,182.48
2018-03-26T22:27:43.703Z,189.68
2018-03-26T22:30:11.124Z,178.68
2018-03-26T22:32:38.532Z,172.43
2018-03-26T22:35:05.947Z,160.43
2018-03-26T22:37:33.377Z,180.77
2018-03-26T22:40:00.792Z,163.48
2018-03-26T22:42:28.209Z,160.57
2018-03-26T22:44:55.635Z,153.77
2018-03-26T22:47:23.048Z,156.15
2018-03-26T22:49:50.464Z,169.15
2018-03-26T22:52:17.892Z,160.60
2018-03-26T22:54:45.307Z,159.00
2018-03-26T22:57:12.727Z,154.25
2018-03-26T22:59:40.144Z,163.50
2018-03-26T23:02:07.551Z,155.27
2018-03-26T23:04:34.975Z,164.90
2018-03-26T23:07:02.384Z,179.93
2018-03-26T23:09:29.804Z,192.20
2018-03-26T23:11:57.216Z,183.15
2018-03-26T23:14:24.624Z,191.12
2018-03-26T23:16:52.041Z,183.25
2018-03-26T23:19:19.456Z,193.07
2018-03-26T23:21:46.887Z,197.62
2018-03-26T23:24:14.294Z,194.95
2018-03-26T23:26:41.704Z,196.30
2018-03-26T23:29:09.127Z,215.02
2018-03-26T23:31:36.536Z,201.65
2018-03-26T23:34:03.960Z,220.82
2018-03-26T23:36:31.382Z,218.00
2018-03-26T23:38:58.776Z,211.02
2018-03-26T23:41:26.197Z,235.20
2018-03-26T23:43:53.627Z,220.65
2018-03-26T23:46:21.780Z,239.15
2018-03-26T23:48:49.197Z,222.18
2018-03-26T23:51:16.608Z,227.55
2018-03-26T23:53:44.044Z,242.00
2018-03-26T23:56:11.468Z,225.52
2018-03-26T23:58:38.892Z,238.93
